createdAt,value
2019-01-18T00:00:39.804Z,17.00
2019-01-18T00:01:39.726Z,18.30
2019-01-18T00:02:39.672Z,18.20
2019-01-18T00:03:39.654Z,18.20
2019-01-18T00:04:39.584Z,17.40
2019-01-18T00:05:39.536Z,18.10
2019-01-18T00:06:39.506Z,17.30
2019-01-18T00:07:39.452Z,18.60
2019-01-18T00:08:39.392Z,19.10
2019-01-18T00:09:39.395Z,18.60
2019-01-18T00:10:39.306Z,17.60
2019-01-18T00:11:39.271Z,18.40
2019-01-18T00:12:39.211Z,18.00
2019-01-18T00:13:39.171Z,18.80
2019-01-18T00:14:39.138Z,19.00
2019-01-18T00:15:39.088Z,18.30
2019-01-18T00:16:39.035Z,17.60
2019-01-18T00:17:38.981Z,18.00
2019-01-18T00:18:38.969Z,17.90
2019-01-18T00:19:38.895Z,17.90
2019-01-18T00:20:38.829Z,18.20
2019-01-18T00:21:38.802Z,18.70
2019-01-18T00:22:38.747Z,18.10
2019-01-18T00:23:38.742Z,17.70
2019-01-18T00:24:38.672Z,18.40
2019-01-18T00:25:38.596Z,18.10
2019-01-18T00:26:38.579Z,17.50
2019-01-18T00:27:38.501Z,17.90
2019-01-18T00:28:38.455Z,17.10
2019-01-18T00:29:38.441Z,17.30
2019-01-18T00:30:38.352Z,16.50
2019-01-18T00:31:38.357Z,17.40
2019-01-18T00:32:38.265Z,17.20
2019-01-18T00:33:38.247Z,16.50
2019-01-18T00:34:38.172Z,16.90
2019-01-18T00:35:38.132Z,16.80
2019-01-18T00:36:38.094Z,16.60
2019-01-18T00:37:38.065Z,17.40
2019-01-18T00:38:37.998Z,17.10
2019-01-18T00:39:37.953Z,16.30
2019-01-18T00:40:37.906Z,17.00
2019-01-18T00:41:37.844Z,16.20
2019-01-18T00:42:37.831Z,16.90
2019-01-18T00:43:37.774Z,17.20
2019-01-18T00:44:37.749Z,16.60
2019-01-18T00:45:37.669Z,17.20
2019-01-18T00:46:37.617Z,17.40
2019-01-18T00:47:37.592Z,17.10
2019-01-18T00:48:37.523Z,17.90
2019-01-18T00:49:37.471Z,16.60
2019-01-18T00:50:37.432Z,17.10
2019-01-18T00:51:37.385Z,17.60
2019-01-18T00:52:37.368Z,18.00
2019-01-18T00:53:37.296Z,17.70
2019-01-18T00:54:37.251Z,18.00
2019-01-18T00:55:37.192Z,17.40
2019-01-18T00:56:37.146Z,17.60
2019-01-18T00:57:37.122Z,16.80
2019-01-18T00:58:37.112Z,17.30
2019-01-18T00:59:37.014Z,17.30
2019-01-18T01:00:36.966Z,17.60
2019-01-18T01:01:36.914Z,17.10
2019-01-18T01:02:36.897Z,17.90
2019-01-18T01:03:36.850Z,17.80
2019-01-18T01:04:36.785Z,16.90
2019-01-18T01:05:36.753Z,17.70
2019-01-18T01:06:36.680Z,15.60
2019-01-18T01:07:36.682Z,16.50
2019-01-18T01:08:36.621Z,16.50
2019-01-18T01:09:36.605Z,16.40
2019-01-18T01:10:36.486Z,16.40
2019-01-18T01:11:36.480Z,16.80
2019-01-18T01:12:36.400Z,17.30
2019-01-18T01:13:36.347Z,17.10
2019-01-18T01:14:36.299Z,16.90
2019-01-18T01:15:36.282Z,17.40
2019-01-18T01:16:36.204Z,17.20
2019-01-18T01:17:36.166Z,17.60
2019-01-18T01:18:36.117Z,18.00
2019-01-18T01:19:36.117Z,17.50
2019-01-18T01:20:36.047Z,17.00
2019-01-18T01:21:35.982Z,17.10
2019-01-18T01:22:35.941Z,17.00
2019-01-18T01:23:35.903Z,16.60
2019-01-18T01:24:35.864Z,16.70
2019-01-18T01:25:35.826Z,16.80
2019-01-18T01:26:35.759Z,17.20
2019-01-18T01:27:35.706Z,16.60
2019-01-18T01:28:35.660Z,16.40
2019-01-18T01:29:35.695Z,17.40
2019-01-18T01:30:35.553Z,17.40
2019-01-18T01:31:35.511Z,17.90
2019-01-18T01:32:35.465Z,17.00
2019-01-18T01:33:35.454Z,16.90
2019-01-18T01:34:35.367Z,16.80
2019-01-18T01:35:35.361Z,16.30
2019-01-18T01:36:35.275Z,17.20
2019-01-18T01:37:35.238Z,17.50
2019-01-18T01:38:35.187Z,17.10
2019-01-18T01:39:35.156Z,17.10
2019-01-18T01:40:35.120Z,17.70
2019-01-18T01:41:35.049Z,17.60
2019-01-18T01:42:35.008Z,17.20
2019-01-18T01:43:34.948Z,17.30
2019-01-18T01:44:34.914Z,18.10
2019-01-18T01:45:34.882Z,18.80
2019-01-18T01:46:34.811Z,17.40
2019-01-18T01:47:34.773Z,18.60
2019-01-18T01:48:34.709Z,18.80
2019-01-18T01:49:34.684Z,18.30
2019-01-18T01:50:34.628Z,18.20
2019-01-18T01:51:34.602Z,17.60
2019-01-18T01:52:34.533Z,17.80
2019-01-18T01:53:34.489Z,18.60
2019-01-18T01:54:34.421Z,17.60
2019-01-18T01:55:34.407Z,18.10
2019-01-18T01:56:34.349Z,18.20
2019-01-18T01:57:34.305Z,17.80
2019-01-18T01:58:34.243Z,18.00
2019-01-18T01:59:34.201Z,17.90
2019-01-18T02:00:34.150Z,18.10
2019-01-18T02:01:34.154Z,18.10
2019-01-18T02:02:34.069Z,18.10
2019-01-18T02:03:34.016Z,18.60
2019-01-18T02:04:33.984Z,18.00
2019-01-18T02:05:33.923Z,17.40
2019-01-18T02:06:33.935Z,18.40
2019-01-18T02:07:33.838Z,18.50
2019-01-18T02:08:33.782Z,19.00
2019-01-18T02:09:33.763Z,19.10
2019-01-18T02:10:33.679Z,18.50
2019-01-18T02:11:33.635Z,18.10
2019-01-18T02:12:33.628Z,18.80
2019-01-18T02:13:33.545Z,18.70
2019-01-18T02:14:33.499Z,19.00
2019-01-18T02:15:33.455Z,18.50
2019-01-18T02:16:33.413Z,19.00
2019-01-18T02:17:33.357Z,19.60
2019-01-18T02:18:33.342Z,20.00
2019-01-18T02:19:33.268Z,19.30
2019-01-18T02:20:33.235Z,18.80
2019-01-18T02:21:33.162Z,19.50
2019-01-18T02:22:33.119Z,19.30
2019-01-18T02:23:33.096Z,18.80
2019-01-18T02:24:33.023Z,19.00
2019-01-18T02:25:33.016Z,19.20
2019-01-18T02:26:32.937Z,19.70
2019-01-18T02:27:32.899Z,21.10
2019-01-18T02:28:32.836Z,20.80
2019-01-18T02:29:32.803Z,20.80
2019-01-18T02:30:32.758Z,20.80
2019-01-18T02:31:32.716Z,20.60
2019-01-18T02:32:32.651Z,20.90
2019-01-18T02:33:32.589Z,20.70
2019-01-18T02:34:32.593Z,21.90
2019-01-18T02:35:32.516Z,21.60
2019-01-18T02:36:32.458Z,22.10
2019-01-18T02:37:32.413Z,22.30
2019-01-18T02:38:32.418Z,22.90
2019-01-18T02:39:32.343Z,22.50
2019-01-18T02:40:32.301Z,23.50
2019-01-18T02:41:32.218Z,23.40
2019-01-18T02:42:32.200Z,23.10
2019-01-18T02:43:32.150Z,23.50
2019-01-18T02:44:32.114Z,23.30
2019-01-18T02:45:32.052Z,23.80
2019-01-18T02:46:32.015Z,22.80
2019-01-18T02:47:31.948Z,24.50
2019-01-18T02:48:31.903Z,24.50
2019-01-18T02:49:31.849Z,25.30
2019-01-18T02:50:31.839Z,24.80
2019-01-18T02:51:31.771Z,23.20
2019-01-18T02:52:31.720Z,24.10
2019-01-18T02:53:31.666Z,23.70
2019-01-18T02:54:31.616Z,24.70
2019-01-18T02:55:31.596Z,24.30
2019-01-18T02:56:31.530Z,24.60
2019-01-18T02:57:31.487Z,24.10
2019-01-18T02:58:31.446Z,23.80
2019-01-18T02:59:31.377Z,23.40
2019-01-18T03:00:31.335Z,23.50
2019-01-18T03:01:31.309Z,23.50
2019-01-18T03:02:31.243Z,23.50
2019-01-18T03:03:31.203Z,23.40
2019-01-18T03:04:31.174Z,23.50
2019-01-18T03:05:31.140Z,23.50
2019-01-18T03:06:31.057Z,23.30
2019-01-18T03:07:31.015Z,24.20
2019-01-18T03:08:30.994Z,24.30
2019-01-18T03:09:30.907Z,24.20
2019-01-18T03:10:30.878Z,23.90
2019-01-18T03:11:30.822Z,24.50
2019-01-18T03:12:30.813Z,23.70
2019-01-18T03:13:30.753Z,25.50
2019-01-18T03:14:30.691Z,24.90
2019-01-18T03:15:30.626Z,25.50
2019-01-18T03:16:30.609Z,25.00
2019-01-18T03:17:30.552Z,26.40
2019-01-18T03:18:30.482Z,26.00
2019-01-18T03:19:30.463Z,26.90
2019-01-18T03:20:40.342Z,27.40
2019-01-18T03:21:30.374Z,26.50
2019-01-18T03:22:30.364Z,26.90
2019-01-18T03:23:30.568Z,26.70
2019-01-18T03:24:31.214Z,27.20
2019-01-18T03:25:30.212Z,27.20
2019-01-18T03:26:30.250Z,28.30
2019-01-18T03:27:30.274Z,28.00
2019-01-18T03:28:30.297Z,27.60
2019-01-18T03:29:30.188Z,27.70
2019-01-18T03:30:30.142Z,29.50
2019-01-18T03:31:30.143Z,29.80
2019-01-18T03:32:29.846Z,30.20
2019-01-18T03:33:30.062Z,28.70
2019-01-18T03:34:29.977Z,29.80
2019-01-18T03:35:30.385Z,30.40
2019-01-18T03:36:29.938Z,29.90
2019-01-18T03:37:29.718Z,28.90
2019-01-18T03:38:29.799Z,29.80
2019-01-18T03:39:29.706Z,31.60
2019-01-18T03:40:29.624Z,31.60
2019-01-18T03:41:29.631Z,31.50
2019-01-18T03:42:29.609Z,32.00
2019-01-18T03:43:29.399Z,32.00
2019-01-18T03:44:29.296Z,31.70
2019-01-18T03:45:29.311Z,32.50
2019-01-18T03:46:29.205Z,32.30
2019-01-18T03:47:29.198Z,34.30
2019-01-18T03:48:29.263Z,33.60
2019-01-18T03:49:29.176Z,34.10
2019-01-18T03:50:29.099Z,33.20
2019-01-18T03:51:29.119Z,34.50
2019-01-18T03:52:29.114Z,35.00
2019-01-18T03:53:28.961Z,32.90
2019-01-18T03:54:28.930Z,32.70
2019-01-18T03:55:28.803Z,34.10
2019-01-18T03:56:28.698Z,36.10
2019-01-18T03:57:28.730Z,35.00
2019-01-18T03:58:28.655Z,35.70
2019-01-18T03:59:28.593Z,36.00
2019-01-18T04:00:28.536Z,36.10
2019-01-18T04:01:28.468Z,36.90
2019-01-18T04:02:28.423Z,35.30
2019-01-18T04:03:28.371Z,35.50
2019-01-18T04:04:28.443Z,36.70
2019-01-18T04:05:28.269Z,36.50
2019-01-18T04:06:28.233Z,36.90
2019-01-18T04:07:28.159Z,35.70
2019-01-18T04:08:28.119Z,35.70
2019-01-18T04:09:28.054Z,35.80
2019-01-18T04:10:28.027Z,34.50
2019-01-18T04:11:27.994Z,37.60
2019-01-18T04:12:27.922Z,38.30
2019-01-18T04:13:27.897Z,39.20
2019-01-18T04:14:27.850Z,38.50
2019-01-18T04:15:27.776Z,37.60
2019-01-18T04:16:27.728Z,39.30
2019-01-18T04:17:27.714Z,38.40
2019-01-18T04:18:27.778Z,41.20
2019-01-18T04:19:27.668Z,41.70
2019-01-18T04:20:27.581Z,41.30
2019-01-18T04:21:27.781Z,40.50
2019-01-18T04:22:28.387Z,40.90
2019-01-18T04:23:27.417Z,40.70
2019-01-18T04:24:27.345Z,40.40
2019-01-18T04:25:27.302Z,41.50
2019-01-18T04:26:27.243Z,43.40
2019-01-18T04:27:27.214Z,44.00
2019-01-18T04:28:27.157Z,48.00
2019-01-18T04:29:27.094Z,49.10
2019-01-18T04:30:33.324Z,51.90
2019-01-18T04:31:27.023Z,50.60
2019-01-18T04:32:26.963Z,50.00
2019-01-18T04:33:26.940Z,50.80
2019-01-18T04:34:26.894Z,52.00
2019-01-18T04:35:26.854Z,51.90
2019-01-18T04:36:26.758Z,53.60
2019-01-18T04:37:26.724Z,53.60
2019-01-18T04:38:26.697Z,52.30
2019-01-18T04:39:26.644Z,52.20
2019-01-18T04:40:26.567Z,54.10
2019-01-18T04:41:26.528Z,52.50
2019-01-18T04:42:26.482Z,52.70
2019-01-18T04:43:26.430Z,53.90
2019-01-18T04:44:26.429Z,54.10
2019-01-18T04:45:26.351Z,54.20
2019-01-18T04:46:26.281Z,55.40
2019-01-18T04:47:26.218Z,53.60
2019-01-18T04:48:26.201Z,53.90
2019-01-18T04:49:26.137Z,52.90
2019-01-18T04:50:26.136Z,52.70
2019-01-18T04:51:26.089Z,54.10
2019-01-18T04:52:26.002Z,56.00
2019-01-18T04:53:25.947Z,58.40
2019-01-18T04:54:25.892Z,57.80
2019-01-18T04:55:25.869Z,60.50
2019-01-18T04:56:25.874Z,58.40
2019-01-18T04:57:25.767Z,62.10
2019-01-18T04:58:26.620Z,59.80
2019-01-18T04:59:25.647Z,59.30
2019-01-18T05:00:25.645Z,62.60
2019-01-18T05:01:25.600Z,62.70
2019-01-18T05:02:25.529Z,59.80
2019-01-18T05:03:25.477Z,58.80
2019-01-18T05:04:25.426Z,57.90
2019-01-18T05:05:25.368Z,58.80
2019-01-18T05:06:25.321Z,59.60
2019-01-18T05:07:25.299Z,60.00
2019-01-18T05:08:25.218Z,60.50
2019-01-18T05:09:25.196Z,59.70
2019-01-18T05:10:25.140Z,59.90
2019-01-18T05:11:25.088Z,60.80
2019-01-18T05:12:25.064Z,62.60
2019-01-18T05:13:24.968Z,62.60
2019-01-18T05:14:24.928Z,64.00
2019-01-18T05:15:24.886Z,63.50
2019-01-18T05:16:24.845Z,63.80
2019-01-18T05:17:24.826Z,66.40
2019-01-18T05:18:24.761Z,66.10
2019-01-18T05:19:24.693Z,67.00
2019-01-18T05:20:24.665Z,69.00
2019-01-18T05:21:24.597Z,71.40
2019-01-18T05:22:24.550Z,70.30
2019-01-18T05:23:24.533Z,70.80
2019-01-18T05:24:24.451Z,68.80
2019-01-18T05:25:24.394Z,65.60
2019-01-18T05:26:24.358Z,68.80
2019-01-18T05:27:24.314Z,70.00
2019-01-18T05:28:24.284Z,71.90
2019-01-18T05:29:24.227Z,65.00
2019-01-18T05:30:24.178Z,66.20
2019-01-18T05:31:34.436Z,64.30
2019-01-18T05:32:34.437Z,64.70
2019-01-18T05:33:24.847Z,65.50
2019-01-18T05:34:24.689Z,63.70
2019-01-18T05:35:23.916Z,61.60
2019-01-18T05:36:23.880Z,57.90
2019-01-18T05:37:23.844Z,58.70
2019-01-18T05:38:23.780Z,69.20
2019-01-18T05:39:23.762Z,69.30
2019-01-18T05:40:23.690Z,76.70
2019-01-18T05:41:23.633Z,75.80
2019-01-18T05:42:23.581Z,70.30
2019-01-18T05:43:23.527Z,68.40
2019-01-18T05:44:23.534Z,63.20
2019-01-18T05:45:23.448Z,59.30
2019-01-18T05:46:23.385Z,59.80
2019-01-18T05:47:23.331Z,58.20
2019-01-18T05:48:23.283Z,59.00
2019-01-18T05:49:23.274Z,60.60
2019-01-18T05:50:23.252Z,59.10
2019-01-18T05:51:23.168Z,59.30
2019-01-18T05:52:23.115Z,60.50
2019-01-18T05:53:23.094Z,58.80
2019-01-18T05:54:23.002Z,56.50
2019-01-18T05:55:22.955Z,53.90
2019-01-18T05:56:23.797Z,51.00
2019-01-18T05:57:23.780Z,52.90
2019-01-18T05:58:23.814Z,70.40
2019-01-18T05:59:23.712Z,66.80
2019-01-18T06:00:23.536Z,72.00
2019-01-18T06:01:23.668Z,67.30
2019-01-18T06:02:23.524Z,64.80
2019-01-18T06:03:22.592Z,62.30
2019-01-18T06:04:23.443Z,61.20
2019-01-18T06:05:23.358Z,61.20
2019-01-18T06:06:23.222Z,59.80
2019-01-18T06:07:22.385Z,61.60
2019-01-18T06:08:22.347Z,59.70
2019-01-18T06:09:22.307Z,58.30
2019-01-18T06:10:22.256Z,60.10
2019-01-18T06:11:22.216Z,57.30
2019-01-18T06:12:22.166Z,58.00
2019-01-18T06:13:22.097Z,57.40
2019-01-18T06:14:22.052Z,57.00
2019-01-18T06:15:22.028Z,54.70
2019-01-18T06:16:22.005Z,55.70
2019-01-18T06:17:21.927Z,54.80
2019-01-18T06:18:21.861Z,53.20
2019-01-18T06:19:21.808Z,53.40
2019-01-18T06:20:21.768Z,53.60
2019-01-18T06:21:21.756Z,53.50
2019-01-18T06:22:21.681Z,51.40
2019-01-18T06:23:21.631Z,50.30
2019-01-18T06:24:21.587Z,52.70
2019-01-18T06:25:21.567Z,52.30
2019-01-18T06:26:21.528Z,51.00
2019-01-18T06:27:23.049Z,53.80
2019-01-18T06:28:21.417Z,51.70
2019-01-18T06:29:21.351Z,52.40
2019-01-18T06:30:21.324Z,52.80
2019-01-18T06:31:21.249Z,50.90
2019-01-18T06:32:21.232Z,50.00
2019-01-18T06:33:21.157Z,49.50
2019-01-18T06:34:21.102Z,51.60
2019-01-18T06:35:21.082Z,50.70
2019-01-18T06:36:21.016Z,53.90
2019-01-18T06:37:21.030Z,53.90
2019-01-18T06:38:20.910Z,56.60
2019-01-18T06:39:20.864Z,58.80
2019-01-18T06:40:20.837Z,58.10
2019-01-18T06:41:20.779Z,60.00
2019-01-18T06:42:20.738Z,62.60
2019-01-18T06:43:20.697Z,62.80
2019-01-18T06:44:20.648Z,62.20
2019-01-18T06:45:20.606Z,63.20
2019-01-18T06:46:20.550Z,63.80
2019-01-18T06:47:20.504Z,52.80
2019-01-18T06:48:20.473Z,56.20
2019-01-18T06:49:20.427Z,57.00
2019-01-18T06:50:20.351Z,53.50
2019-01-18T06:51:20.303Z,46.10
2019-01-18T06:52:20.248Z,43.00
2019-01-18T06:53:20.210Z,37.90
2019-01-18T06:54:20.159Z,36.10
2019-01-18T06:55:20.142Z,34.30
2019-01-18T06:56:20.069Z,32.70
2019-01-18T06:57:20.025Z,31.50
2019-01-18T06:58:19.969Z,31.00
2019-01-18T06:59:19.960Z,30.20
2019-01-18T07:00:19.899Z,31.30
2019-01-18T07:01:19.835Z,31.30
2019-01-18T07:02:19.795Z,30.50
2019-01-18T07:03:19.724Z,34.20
2019-01-18T07:04:19.692Z,36.00
2019-01-18T07:05:19.654Z,38.00
2019-01-18T07:06:19.616Z,41.20
2019-01-18T07:07:19.563Z,41.80
2019-01-18T07:08:19.498Z,45.40
2019-01-18T07:09:19.451Z,48.20
2019-01-18T07:10:20.965Z,52.60
2019-01-18T07:11:19.548Z,57.70
2019-01-18T07:12:19.304Z,57.70
2019-01-18T07:13:19.301Z,60.70
2019-01-18T07:14:19.238Z,61.90
2019-01-18T07:15:19.179Z,63.00
2019-01-18T07:16:19.108Z,61.30
2019-01-18T07:17:19.078Z,60.30
2019-01-18T07:18:19.049Z,59.50
2019-01-18T07:19:18.972Z,59.70
2019-01-18T07:20:18.950Z,60.80
2019-01-18T07:21:18.924Z,68.10
2019-01-18T07:22:18.837Z,66.10
2019-01-18T07:23:18.792Z,63.60
2019-01-18T07:24:18.772Z,66.30
2019-01-18T07:25:18.680Z,63.40
2019-01-18T07:26:18.628Z,62.30
2019-01-18T07:27:18.597Z,66.90
2019-01-18T07:28:18.563Z,77.20
2019-01-18T07:29:18.504Z,75.10
2019-01-18T07:30:18.467Z,71.00
2019-01-18T07:31:18.404Z,74.10
2019-01-18T07:32:18.376Z,71.10
2019-01-18T07:33:18.316Z,71.40
2019-01-18T07:34:18.261Z,71.50
2019-01-18T07:35:18.228Z,74.20
2019-01-18T07:36:18.189Z,76.00
2019-01-18T07:37:18.098Z,77.60
2019-01-18T07:38:18.056Z,77.90
2019-01-18T07:39:22.379Z,80.60
2019-01-18T07:40:18.006Z,77.90
2019-01-18T07:41:17.938Z,82.60
2019-01-18T07:42:27.859Z,83.30
2019-01-18T07:43:27.997Z,83.20
2019-01-18T07:44:17.846Z,79.80
2019-01-18T07:45:18.741Z,77.80
2019-01-18T07:46:17.736Z,78.70
2019-01-18T07:47:17.637Z,79.30
2019-01-18T07:48:17.581Z,79.00
2019-01-18T07:49:17.534Z,78.40
2019-01-18T07:50:20.137Z,84.00
2019-01-18T07:51:17.458Z,81.90
2019-01-18T07:52:17.407Z,81.90
2019-01-18T07:53:17.489Z,83.20
2019-01-18T07:54:17.281Z,82.30
2019-01-18T07:55:17.254Z,79.10
2019-01-18T07:56:17.249Z,89.90
2019-01-18T07:57:17.163Z,86.00
2019-01-18T07:58:17.112Z,82.70
2019-01-18T07:59:17.040Z,82.20
2019-01-18T08:00:17.023Z,81.60
2019-01-18T08:01:22.078Z,76.20
2019-01-18T08:02:16.908Z,73.60
2019-01-18T08:03:16.854Z,72.60
2019-01-18T08:04:16.823Z,70.10
2019-01-18T08:05:16.751Z,69.30
2019-01-18T08:06:16.702Z,69.40
2019-01-18T08:07:16.670Z,65.10
2019-01-18T08:08:16.619Z,65.40
2019-01-18T08:09:16.592Z,64.10
2019-01-18T08:10:16.550Z,62.80
2019-01-18T08:11:16.478Z,62.70
2019-01-18T08:12:16.442Z,65.10
2019-01-18T08:13:16.390Z,65.00
2019-01-18T08:14:16.320Z,67.00
2019-01-18T08:15:16.264Z,62.90
2019-01-18T08:16:16.225Z,63.90
2019-01-18T08:17:16.173Z,64.00
2019-01-18T08:18:16.153Z,60.00
2019-01-18T08:19:16.082Z,61.70
2019-01-18T08:20:16.060Z,58.80
2019-01-18T08:21:16.015Z,56.40
2019-01-18T08:22:15.956Z,57.90
2019-01-18T08:23:15.927Z,54.80
2019-01-18T08:24:15.871Z,53.70
2019-01-18T08:25:15.799Z,49.40
2019-01-18T08:26:15.759Z,44.70
2019-01-18T08:27:15.703Z,40.20
2019-01-18T08:28:15.654Z,40.90
2019-01-18T08:29:15.627Z,39.70
2019-01-18T08:30:15.549Z,36.70
2019-01-18T08:31:15.532Z,37.40
2019-01-18T08:32:15.468Z,37.40
2019-01-18T08:33:15.446Z,36.80
2019-01-18T08:34:15.491Z,41.20
2019-01-18T08:35:15.402Z,43.80
2019-01-18T08:36:15.270Z,44.40
2019-01-18T08:37:15.434Z,42.50
2019-01-18T08:38:15.385Z,39.60
2019-01-18T08:39:15.379Z,39.20
2019-01-18T08:40:15.279Z,37.30
2019-01-18T08:41:15.145Z,34.70
2019-01-18T08:42:15.176Z,29.80
2019-01-18T08:43:15.188Z,31.20
2019-01-18T08:44:14.904Z,29.90
2019-01-18T08:45:14.910Z,29.50
2019-01-18T08:46:14.820Z,29.50
2019-01-18T08:47:14.812Z,29.30
2019-01-18T08:48:14.737Z,30.20
2019-01-18T08:49:14.734Z,28.90
2019-01-18T08:50:14.720Z,30.00
2019-01-18T08:51:14.602Z,28.60
2019-01-18T08:52:14.554Z,30.40
2019-01-18T08:53:14.506Z,28.70
2019-01-18T08:54:14.467Z,28.70
2019-01-18T08:55:14.448Z,28.60
2019-01-18T08:56:14.389Z,28.70
2019-01-18T08:57:14.332Z,27.50
2019-01-18T08:58:14.278Z,28.20
2019-01-18T08:59:14.244Z,28.10
2019-01-18T09:00:14.253Z,28.70
2019-01-18T09:01:14.145Z,26.40
2019-01-18T09:02:14.127Z,27.90
2019-01-18T09:03:14.063Z,26.20
2019-01-18T09:04:14.022Z,25.90
2019-01-18T09:05:14.004Z,27.20
2019-01-18T09:06:13.949Z,31.10
2019-01-18T09:07:13.878Z,32.30
2019-01-18T09:08:13.844Z,36.50
2019-01-18T09:09:13.797Z,41.00
2019-01-18T09:10:13.751Z,48.10
2019-01-18T09:11:13.755Z,74.90
2019-01-18T09:12:13.673Z,88.50
2019-01-18T09:13:13.656Z,125.30
2019-01-18T09:14:19.312Z,239.60
2019-01-18T09:15:13.536Z,214.30
2019-01-18T09:16:13.522Z,151.70
2019-01-18T09:17:13.471Z,90.40
2019-01-18T09:18:13.420Z,59.70
2019-01-18T09:19:13.382Z,49.60
2019-01-18T09:20:13.323Z,38.10
2019-01-18T09:21:13.277Z,33.90
2019-01-18T09:22:13.252Z,33.20
2019-01-18T09:23:13.203Z,37.50
2019-01-18T09:24:13.174Z,38.90
2019-01-18T09:25:13.361Z,40.30
2019-01-18T09:26:13.060Z,40.70
2019-01-18T09:27:13.039Z,41.50
2019-01-18T09:28:12.993Z,40.10
2019-01-18T09:29:12.924Z,41.40
2019-01-18T09:30:12.875Z,40.70
2019-01-18T09:31:12.845Z,41.80
2019-01-18T09:32:12.819Z,42.60
2019-01-18T09:33:12.735Z,44.10
2019-01-18T09:34:13.515Z,44.70
2019-01-18T09:35:12.703Z,45.00
2019-01-18T09:36:12.657Z,43.50
2019-01-18T09:37:12.601Z,48.10
2019-01-18T09:38:17.742Z,45.30
2019-01-18T09:39:12.470Z,47.50
2019-01-18T09:40:12.434Z,46.70
2019-01-18T09:41:12.385Z,49.30
2019-01-18T09:42:12.366Z,49.50
2019-01-18T09:43:12.314Z,50.40
2019-01-18T09:44:12.272Z,49.20
2019-01-18T09:45:12.210Z,50.90
2019-01-18T09:46:12.165Z,49.90
2019-01-18T09:47:12.116Z,51.50
2019-01-18T09:48:12.102Z,52.40
2019-01-18T09:49:12.027Z,54.10
2019-01-18T09:50:11.983Z,55.10
2019-01-18T09:51:11.939Z,55.20
2019-01-18T09:52:11.941Z,55.90
2019-01-18T09:53:11.847Z,55.20
2019-01-18T09:54:11.821Z,55.90
2019-01-18T09:55:11.766Z,56.80
2019-01-18T09:56:11.725Z,56.80
2019-01-18T09:57:11.669Z,56.60
2019-01-18T09:58:11.719Z,54.60
2019-01-18T09:59:11.563Z,57.60
2019-01-18T10:00:11.521Z,56.50
2019-01-18T10:01:11.481Z,57.90
2019-01-18T10:02:11.458Z,57.10
2019-01-18T10:03:11.390Z,57.10
2019-01-18T10:04:11.403Z,54.60
2019-01-18T10:05:11.301Z,54.70
2019-01-18T10:06:11.263Z,53.60
2019-01-18T10:07:11.228Z,54.30
2019-01-18T10:08:11.213Z,55.10
2019-01-18T10:09:11.127Z,52.60
2019-01-18T10:10:11.071Z,52.90
2019-01-18T10:11:11.046Z,53.70
2019-01-18T10:12:10.977Z,53.60
2019-01-18T10:13:10.932Z,52.90
2019-01-18T10:14:10.927Z,52.20
2019-01-18T10:15:10.861Z,53.20
2019-01-18T10:16:10.798Z,53.20
2019-01-18T10:17:10.765Z,52.60
2019-01-18T10:18:10.707Z,53.90
2019-01-18T10:19:10.670Z,54.00
2019-01-18T10:20:10.649Z,54.40
2019-01-18T10:21:10.577Z,52.20
2019-01-18T10:22:10.527Z,53.60
2019-01-18T10:23:10.485Z,53.30
2019-01-18T10:24:10.440Z,52.60
2019-01-18T10:25:10.388Z,52.20
2019-01-18T10:26:10.361Z,52.30
2019-01-18T10:27:10.304Z,52.80
2019-01-18T10:28:10.268Z,52.80
2019-01-18T10:29:10.205Z,52.30
2019-01-18T10:30:10.183Z,49.00
2019-01-18T10:31:10.110Z,50.90
2019-01-18T10:32:10.088Z,48.00
2019-01-18T10:33:10.023Z,48.30
2019-01-18T10:34:09.983Z,45.80
2019-01-18T10:35:09.953Z,43.20
2019-01-18T10:36:09.917Z,41.70
2019-01-18T10:37:09.840Z,41.70
2019-01-18T10:38:09.791Z,39.40
2019-01-18T10:39:09.749Z,40.20
2019-01-18T10:40:09.734Z,41.80
2019-01-18T10:41:09.666Z,41.90
2019-01-18T10:42:09.621Z,44.20
2019-01-18T10:43:09.564Z,40.70
2019-01-18T10:44:09.517Z,38.30
2019-01-18T10:45:09.469Z,37.70
2019-01-18T10:46:09.455Z,35.40
2019-01-18T10:47:09.427Z,35.50
2019-01-18T10:48:09.367Z,37.00
2019-01-18T10:49:09.310Z,37.40
2019-01-18T10:50:09.329Z,35.50
2019-01-18T10:51:09.274Z,35.10
2019-01-18T10:52:09.232Z,34.10
2019-01-18T10:53:09.293Z,31.20
2019-01-18T10:54:09.177Z,31.00
2019-01-18T10:55:09.059Z,29.30
2019-01-18T10:56:09.097Z,29.70
2019-01-18T10:57:08.929Z,27.90
2019-01-18T10:58:08.960Z,29.50
2019-01-18T10:59:08.854Z,27.50
2019-01-18T11:00:08.845Z,26.40
2019-01-18T11:01:09.118Z,27.40
2019-01-18T11:02:08.729Z,26.50
2019-01-18T11:03:09.135Z,27.20
2019-01-18T11:04:08.708Z,27.20
2019-01-18T11:05:08.613Z,27.10
2019-01-18T11:06:08.590Z,28.30
2019-01-18T11:07:08.544Z,27.70
2019-01-18T11:08:08.525Z,28.60
2019-01-18T11:09:08.456Z,27.70
2019-01-18T11:10:08.383Z,27.60
2019-01-18T11:11:08.485Z,28.70
2019-01-18T11:12:08.296Z,29.70
2019-01-18T11:13:08.381Z,28.00
2019-01-18T11:14:08.355Z,29.50
2019-01-18T11:15:08.190Z,28.70
2019-01-18T11:16:08.182Z,29.20
2019-01-18T11:17:08.080Z,28.90
2019-01-18T11:18:08.051Z,28.90
2019-01-18T11:19:08.097Z,30.70
2019-01-18T11:20:07.988Z,29.60
2019-01-18T11:21:07.946Z,31.50
2019-01-18T11:22:07.885Z,31.80
2019-01-18T11:23:07.848Z,33.10
2019-01-18T11:24:07.856Z,33.50
2019-01-18T11:25:07.777Z,34.70
2019-01-18T11:26:09.026Z,35.60
2019-01-18T11:27:07.746Z,37.00
2019-01-18T11:28:07.673Z,37.70
2019-01-18T11:29:07.616Z,38.50
2019-01-18T11:30:08.534Z,40.30
2019-01-18T11:31:07.664Z,41.10
2019-01-18T11:32:13.582Z,39.00
2019-01-18T11:33:07.475Z,39.30
2019-01-18T11:34:07.379Z,39.00
2019-01-18T11:35:08.027Z,38.90
2019-01-18T11:36:07.297Z,39.10
2019-01-18T11:37:07.304Z,38.50
2019-01-18T11:38:07.184Z,36.50
2019-01-18T11:39:07.175Z,36.50
2019-01-18T11:40:07.164Z,38.50
2019-01-18T11:41:07.069Z,38.20
2019-01-18T11:42:07.530Z,39.70
2019-01-18T11:43:06.956Z,40.00
2019-01-18T11:44:06.943Z,40.90
2019-01-18T11:45:06.882Z,40.80
2019-01-18T11:46:06.830Z,39.80
2019-01-18T11:47:06.829Z,38.60
2019-01-18T11:48:06.769Z,37.30
2019-01-18T11:49:06.704Z,38.50
2019-01-18T11:50:06.652Z,37.00
2019-01-18T11:51:06.596Z,38.20
2019-01-18T11:52:06.569Z,37.10
2019-01-18T11:53:06.514Z,36.90
2019-01-18T11:54:06.469Z,37.10
2019-01-18T11:55:06.460Z,35.30
2019-01-18T11:56:06.384Z,36.60
2019-01-18T11:57:06.351Z,36.70
2019-01-18T11:58:06.293Z,36.80
2019-01-18T11:59:06.271Z,37.20
2019-01-18T12:00:06.249Z,38.10
2019-01-18T12:01:06.226Z,37.30
2019-01-18T12:02:06.140Z,37.40
2019-01-18T12:03:06.068Z,38.60
2019-01-18T12:04:06.029Z,40.10
2019-01-18T12:05:05.997Z,38.80
2019-01-18T12:06:15.186Z,40.00
2019-01-18T12:07:05.898Z,42.10
2019-01-18T12:08:05.826Z,41.10
2019-01-18T12:09:05.793Z,40.40
2019-01-18T12:10:05.818Z,40.40
2019-01-18T12:11:05.707Z,40.40
2019-01-18T12:12:06.365Z,39.60
2019-01-18T12:13:05.632Z,38.30
2019-01-18T12:14:05.566Z,37.40
2019-01-18T12:15:05.524Z,37.70
2019-01-18T12:16:05.483Z,37.70
2019-01-18T12:17:05.483Z,36.30
2019-01-18T12:18:05.441Z,37.20
2019-01-18T12:19:05.359Z,35.40
2019-01-18T12:20:05.322Z,34.40
2019-01-18T12:21:05.290Z,36.40
2019-01-18T12:22:05.226Z,36.60
2019-01-18T12:23:05.232Z,37.30
2019-01-18T12:24:05.149Z,36.40
2019-01-18T12:25:05.105Z,37.10
2019-01-18T12:26:05.044Z,36.40
2019-01-18T12:27:05.035Z,36.00
2019-01-18T12:28:04.996Z,35.10
2019-01-18T12:29:04.946Z,35.20
2019-01-18T12:30:04.866Z,34.30
2019-01-18T12:31:04.835Z,34.60
2019-01-18T12:32:04.769Z,35.90
2019-01-18T12:33:04.740Z,33.40
2019-01-18T12:34:04.707Z,33.50
2019-01-18T12:35:04.679Z,34.10
2019-01-18T12:36:04.617Z,31.60
2019-01-18T12:37:04.556Z,32.10
2019-01-18T12:38:04.536Z,33.10
2019-01-18T12:39:04.500Z,33.80
2019-01-18T12:40:04.462Z,35.10
2019-01-18T12:41:04.404Z,34.40
2019-01-18T12:42:04.399Z,35.20
2019-01-18T12:43:04.314Z,36.00
2019-01-18T12:44:04.297Z,37.10
2019-01-18T12:45:04.229Z,38.70
2019-01-18T12:46:04.251Z,37.80
2019-01-18T12:47:04.143Z,38.70
2019-01-18T12:48:05.538Z,40.00
2019-01-18T12:49:04.084Z,42.00
2019-01-18T12:50:09.567Z,41.40
2019-01-18T12:51:04.353Z,42.00
2019-01-18T12:52:04.502Z,43.00